createdAt,value
2018-11-23T00:00:28.259Z,118.37
2018-11-23T00:02:58.166Z,115.37
2018-11-23T00:05:27.166Z,114.23
2018-11-23T00:07:56.906Z,107.23
2018-11-23T00:10:27.268Z,113.03
2018-11-23T00:12:56.370Z,116.67
2018-11-23T00:15:25.784Z,108.20
2018-11-23T00:17:54.949Z,111.33
2018-11-23T00:20:25.281Z,116.97
2018-11-23T00:22:54.448Z,102.57
2018-11-23T00:25:24.819Z,120.67
2018-11-23T00:27:54.302Z,115.03
2018-11-23T00:30:25.587Z,111.70
2018-11-23T00:32:54.858Z,114.17
2018-11-23T00:35:25.095Z,121.03
2018-11-23T00:37:54.708Z,105.77
2018-11-23T00:40:25.091Z,123.03
2018-11-23T00:42:54.383Z,108.60
2018-11-23T00:45:23.678Z,112.00
2018-11-23T00:47:53.465Z,110.23
2018-11-23T00:50:23.355Z,124.02
2018-11-23T00:52:53.177Z,120.97
2018-11-23T00:55:23.092Z,114.83
2018-11-23T00:57:52.165Z,103.60
2018-11-23T01:00:24.796Z,110.80
2018-11-23T01:02:54.144Z,107.90
2018-11-23T01:05:23.271Z,113.93
2018-11-23T01:07:52.300Z,119.13
2018-11-23T01:10:22.493Z,106.67
2018-11-23T01:12:52.694Z,128.85
2018-11-23T01:15:21.770Z,116.47
2018-11-23T01:17:50.847Z,116.33
2018-11-23T01:20:21.235Z,121.10
2018-11-23T01:22:50.639Z,112.00
2018-11-23T01:25:20.734Z,113.60
2018-11-23T01:27:50.986Z,118.47
2018-11-23T01:30:21.887Z,118.63
2018-11-23T01:32:50.959Z,128.00
2018-11-23T01:35:20.053Z,126.03
2018-11-23T01:37:49.372Z,123.30
2018-11-23T01:40:20.580Z,123.33
2018-11-23T01:42:49.603Z,122.37
2018-11-23T01:45:18.671Z,118.50
2018-11-23T01:47:47.739Z,121.20
2018-11-23T01:50:25.246Z,112.40
2018-11-23T01:52:54.365Z,123.50
2018-11-23T01:55:23.909Z,127.80
2018-11-23T01:57:52.916Z,122.03
2018-11-23T02:00:23.291Z,115.83
2018-11-23T02:02:53.164Z,119.57
2018-11-23T02:05:22.608Z,122.67
2018-11-23T02:07:51.802Z,124.83
2018-11-23T02:10:21.050Z,121.80
2018-11-23T02:12:50.194Z,134.23
2018-11-23T02:15:21.012Z,142.30
2018-11-23T02:17:50.594Z,136.73
2018-11-23T02:20:20.353Z,133.73
2018-11-23T02:22:49.477Z,141.57
2018-11-23T02:25:18.556Z,144.87
2018-11-23T02:27:47.563Z,137.80
2018-11-23T02:30:21.545Z,150.13
2018-11-23T02:32:50.655Z,139.60
2018-11-23T02:35:19.636Z,150.40
2018-11-23T02:37:48.731Z,152.87
2018-11-23T02:40:18.996Z,157.40
2018-11-23T02:42:48.027Z,150.67
2018-11-23T02:45:21.445Z,158.40
2018-11-23T02:47:50.698Z,149.03
2018-11-23T02:50:19.757Z,141.27
2018-11-23T02:52:49.046Z,150.33
2018-11-23T02:55:19.003Z,143.67
2018-11-23T02:57:48.041Z,153.30
2018-11-23T03:00:18.723Z,152.00
2018-11-23T03:02:47.755Z,151.53
2018-11-23T03:05:18.308Z,164.57
2018-11-23T03:07:47.389Z,178.60
2018-11-23T03:10:16.865Z,159.83
2018-11-23T03:12:46.457Z,164.93
2018-11-23T03:15:17.124Z,176.30
2018-11-23T03:17:46.601Z,161.33
2018-11-23T03:20:16.815Z,172.73
2018-11-23T03:22:45.966Z,159.63
2018-11-23T03:25:15.356Z,152.57
2018-11-23T03:27:44.447Z,162.13
2018-11-23T03:30:20.663Z,162.97
2018-11-23T03:32:50.373Z,164.20
2018-11-23T03:35:20.059Z,152.80
2018-11-23T03:37:49.366Z,160.23
2018-11-23T03:40:18.458Z,158.40
2018-11-23T03:42:47.331Z,161.97
2018-11-23T03:45:16.848Z,177.67
2018-11-23T03:47:46.076Z,172.93
2018-11-23T03:50:15.903Z,173.23
2018-11-23T03:52:45.221Z,147.37
2018-11-23T03:55:14.451Z,157.97
2018-11-23T03:57:43.564Z,161.33
2018-11-23T04:00:17.593Z,164.30
2018-11-23T04:02:45.984Z,162.73
2018-11-23T04:05:15.037Z,168.40
2018-11-23T04:07:44.256Z,171.13
2018-11-23T04:10:14.309Z,173.27
2018-11-23T04:12:43.798Z,164.23
2018-11-23T04:15:13.342Z,159.87
2018-11-23T04:17:42.511Z,150.70
2018-11-23T04:20:14.874Z,161.80
2018-11-23T04:22:44.221Z,167.47
2018-11-23T04:25:13.836Z,161.63
2018-11-23T04:27:43.389Z,172.23
2018-11-23T04:30:14.358Z,178.30
2018-11-23T04:32:43.862Z,180.90
2018-11-23T04:35:14.887Z,164.43
2018-11-23T04:37:44.371Z,172.43
2018-11-23T04:40:14.222Z,176.07
2018-11-23T04:42:43.407Z,183.27
2018-11-23T04:45:12.968Z,181.67
2018-11-23T04:47:41.943Z,179.33
2018-11-23T04:50:12.870Z,177.33
2018-11-23T04:52:41.883Z,175.87
2018-11-23T04:55:11.050Z,193.70
2018-11-23T04:57:39.960Z,180.87
2018-11-23T05:00:11.067Z,181.77
2018-11-23T05:02:40.050Z,182.70
2018-11-23T05:05:10.238Z,184.37
2018-11-23T05:07:39.122Z,178.63
2018-11-23T05:10:10.008Z,192.77
2018-11-23T05:12:39.275Z,178.33
2018-11-23T05:15:09.291Z,185.27
2018-11-23T05:17:38.196Z,190.97
2018-11-23T05:20:07.848Z,183.30
2018-11-23T05:22:37.305Z,194.63
2018-11-23T05:25:06.878Z,186.80
2018-11-23T05:27:35.979Z,186.03
2018-11-23T05:30:06.922Z,176.47
2018-11-23T05:32:35.999Z,186.23
2018-11-23T05:35:05.175Z,195.37
2018-11-23T05:37:34.104Z,195.37
2018-11-23T05:40:03.094Z,189.70
2018-11-23T05:42:32.182Z,201.33
2018-11-23T05:45:01.198Z,201.37
2018-11-23T05:47:30.278Z,186.57
2018-11-23T05:49:59.410Z,180.43
2018-11-23T05:52:28.384Z,197.77
2018-11-23T05:54:57.482Z,191.60
2018-11-23T05:57:26.572Z,171.03
2018-11-23T05:59:55.670Z,184.10
2018-11-23T06:02:24.593Z,193.23
2018-11-23T06:04:53.528Z,185.33
2018-11-23T06:07:22.725Z,182.60
2018-11-23T06:09:51.642Z,192.60
2018-11-23T06:12:20.841Z,191.93
2018-11-23T06:14:49.936Z,193.77
2018-11-23T06:17:19.047Z,194.00
2018-11-23T06:19:48.119Z,195.20
2018-11-23T06:22:17.130Z,178.87
2018-11-23T06:24:46.103Z,200.63
2018-11-23T06:27:15.243Z,187.80
2018-11-23T06:29:44.295Z,184.07
2018-11-23T06:32:24.038Z,198.23
2018-11-23T06:34:53.183Z,203.07
2018-11-23T06:37:22.268Z,190.37
2018-11-23T06:39:51.388Z,189.33
2018-11-23T06:42:20.732Z,214.40
2018-11-23T06:44:49.733Z,184.23
2018-11-23T06:47:18.828Z,197.73
2018-11-23T06:49:47.908Z,196.00
2018-11-23T06:52:17.021Z,205.53
2018-11-23T06:54:46.001Z,195.37
2018-11-23T06:57:15.141Z,207.87
2018-11-23T06:59:44.327Z,218.77
2018-11-23T07:02:13.525Z,196.63
2018-11-23T07:04:42.504Z,204.03
2018-11-23T07:07:11.601Z,210.40
2018-11-23T07:09:40.703Z,204.27
2018-11-23T07:12:09.700Z,207.00
2018-11-23T07:14:38.889Z,213.43
2018-11-23T07:17:08.034Z,205.67
2018-11-23T07:19:37.067Z,209.43
2018-11-23T07:22:06.072Z,196.47
2018-11-23T07:24:35.280Z,205.07
2018-11-23T07:27:04.487Z,198.47
2018-11-23T07:29:33.563Z,189.03
2018-11-23T07:32:02.668Z,198.23
2018-11-23T07:34:31.736Z,214.70
2018-11-23T07:37:00.962Z,209.70
2018-11-23T07:39:41.010Z,193.90
2018-11-23T07:42:18.762Z,208.37
2018-11-23T07:44:47.666Z,198.23
2018-11-23T07:47:16.467Z,207.10
2018-11-23T07:49:45.957Z,194.87
2018-11-23T07:52:15.217Z,190.80
2018-11-23T07:54:44.289Z,203.83
2018-11-23T07:57:13.260Z,199.87
2018-11-23T07:59:42.271Z,203.43
2018-11-23T08:02:12.431Z,265.55
2018-11-23T08:04:42.190Z,198.03
2018-11-23T08:07:11.744Z,196.83
2018-11-23T08:09:41.422Z,202.90
2018-11-23T08:12:10.616Z,193.03
2018-11-23T08:14:39.819Z,185.80
2018-11-23T08:17:08.929Z,236.10
2018-11-23T08:19:37.980Z,200.93
2018-11-23T08:22:07.067Z,188.20
2018-11-23T08:24:36.254Z,236.62
2018-11-23T08:27:05.267Z,215.67
2018-11-23T08:29:34.276Z,182.67
2018-11-23T08:32:03.402Z,178.47
2018-11-23T08:34:32.587Z,173.30
2018-11-23T08:37:01.483Z,168.80
2018-11-23T08:39:30.559Z,154.07
2018-11-23T08:41:59.664Z,163.70
2018-11-23T08:44:28.651Z,176.20
2018-11-23T08:46:57.753Z,172.43
2018-11-23T08:49:26.968Z,161.10
2018-11-23T08:51:56.142Z,163.47
2018-11-23T08:54:25.332Z,170.50
2018-11-23T08:56:54.451Z,169.87
2018-11-23T08:59:23.544Z,157.63
2018-11-23T09:01:52.696Z,165.53
2018-11-23T09:04:21.833Z,158.07
2018-11-23T09:06:50.825Z,169.90
2018-11-23T09:09:20.114Z,165.97
2018-11-23T09:11:50.230Z,147.33
2018-11-23T09:14:19.480Z,166.60
2018-11-23T09:16:48.642Z,151.90
2018-11-23T09:19:17.842Z,163.53
2018-11-23T09:21:46.775Z,147.47
2018-11-23T09:24:15.777Z,164.10
2018-11-23T09:26:44.841Z,170.17
2018-11-23T09:29:13.978Z,153.83
2018-11-23T09:31:43.012Z,156.50
2018-11-23T09:34:12.118Z,150.80
2018-11-23T09:36:41.198Z,146.60
2018-11-23T09:39:10.296Z,137.83
2018-11-23T09:41:39.419Z,156.00
2018-11-23T09:44:08.790Z,157.47
2018-11-23T09:46:37.996Z,160.17
2018-11-23T09:49:07.423Z,154.97
2018-11-23T09:51:36.608Z,145.90
2018-11-23T09:54:05.732Z,158.33
2018-11-23T09:56:34.678Z,140.80
2018-11-23T09:59:03.852Z,155.83
2018-11-23T10:01:32.889Z,148.60
2018-11-23T10:04:02.064Z,155.50
2018-11-23T10:06:31.341Z,156.47
2018-11-23T10:09:00.823Z,150.77
2018-11-23T10:11:29.887Z,155.97
2018-11-23T10:13:59.075Z,163.80
2018-11-23T10:16:28.076Z,140.93
2018-11-23T10:18:57.275Z,139.63
2018-11-23T10:21:26.258Z,142.63
2018-11-23T10:23:55.540Z,138.90
2018-11-23T10:26:24.764Z,142.40
2018-11-23T10:28:53.997Z,136.73
2018-11-23T10:31:23.051Z,136.70
2018-11-23T10:33:52.787Z,140.50
2018-11-23T10:36:21.948Z,135.80
2018-11-23T10:38:51.078Z,117.03
2018-11-23T10:41:20.080Z,131.77
2018-11-23T10:43:49.127Z,147.70
2018-11-23T10:46:18.144Z,131.83
2018-11-23T10:48:47.242Z,130.93
2018-11-23T10:51:16.434Z,132.83
2018-11-23T10:56:14.675Z,118.50
2018-11-23T10:58:43.840Z,111.20
2018-11-23T11:01:18.062Z,113.23
2018-11-23T11:03:52.175Z,106.43
2018-11-23T11:06:26.468Z,96.47
2018-11-23T11:08:55.596Z,96.70
2018-11-23T11:11:24.674Z,100.73
2018-11-23T11:13:53.927Z,104.80
2018-11-23T11:16:22.919Z,102.67
2018-11-23T11:18:52.199Z,111.67
2018-11-23T11:21:21.145Z,122.87
2018-11-23T11:23:50.255Z,129.30
2018-11-23T11:26:19.262Z,118.00
2018-11-23T11:28:48.430Z,147.00
2018-11-23T11:31:17.623Z,141.97
2018-11-23T11:33:46.738Z,136.47
2018-11-23T11:36:15.730Z,139.67
2018-11-23T11:38:46.307Z,147.80
2018-11-23T11:41:14.917Z,122.13
2018-11-23T11:43:44.124Z,131.03
2018-11-23T11:46:13.507Z,127.23
2018-11-23T11:48:42.423Z,132.17
2018-11-23T11:51:11.521Z,119.63
2018-11-23T11:53:40.639Z,119.27
2018-11-23T11:56:09.930Z,129.60
2018-11-23T11:58:39.029Z,110.87
2018-11-23T12:01:08.271Z,123.50
2018-11-23T12:03:37.320Z,107.40
2018-11-23T12:06:06.591Z,101.40
2018-11-23T12:08:35.557Z,96.90
2018-11-23T12:11:04.607Z,96.83
2018-11-23T12:13:33.695Z,100.53
2018-11-23T12:16:02.617Z,96.97
2018-11-23T12:18:31.555Z,95.90
2018-11-23T12:21:00.693Z,99.57
2018-11-23T12:23:29.851Z,105.17
2018-11-23T12:25:59.200Z,94.67
2018-11-23T12:28:28.294Z,99.13
2018-11-23T12:30:57.385Z,95.30
2018-11-23T12:33:26.468Z,105.83
2018-11-23T12:35:55.537Z,100.30
2018-11-23T12:38:24.628Z,96.17
2018-11-23T12:40:53.631Z,92.10
2018-11-23T12:43:22.744Z,88.93
2018-11-23T12:45:51.858Z,87.83
2018-11-23T12:48:20.939Z,96.27
2018-11-23T12:50:50.688Z,90.37
2018-11-23T12:53:19.028Z,75.87
2018-11-23T12:55:48.107Z,76.17
2018-11-23T12:58:17.090Z,80.13
2018-11-23T13:00:46.201Z,77.03
2018-11-23T13:03:15.196Z,90.40
2018-11-23T13:05:44.201Z,86.23
2018-11-23T13:08:13.501Z,88.50
2018-11-23T13:10:43.112Z,88.77
2018-11-23T13:13:11.666Z,90.87
2018-11-23T13:15:40.863Z,87.80
2018-11-23T13:18:09.918Z,84.40
2018-11-23T13:20:38.971Z,100.30
2018-11-23T13:23:08.071Z,96.63
2018-11-23T13:25:37.209Z,91.63
2018-11-23T13:28:06.364Z,94.27
2018-11-23T13:30:36.571Z,84.93
2018-11-23T13:33:05.808Z,79.57
2018-11-23T13:35:34.880Z,84.40
2018-11-23T13:38:04.184Z,83.63
2018-11-23T13:40:33.392Z,83.27
2018-11-23T13:43:02.484Z,84.83
2018-11-23T13:45:33.020Z,93.87
2018-11-23T13:48:02.116Z,111.50
2018-11-23T13:50:31.328Z,124.87
2018-11-23T13:53:01.577Z,119.53
2018-11-23T13:55:30.636Z,113.30
2018-11-23T13:57:59.708Z,104.67
2018-11-23T14:00:29.932Z,94.20
2018-11-23T14:02:59.082Z,92.97
2018-11-23T14:05:29.620Z,91.50
2018-11-23T14:07:59.814Z,116.33
2018-11-23T14:10:29.466Z,119.90
2018-11-23T14:12:58.683Z,117.30
2018-11-23T14:15:30.160Z,112.70
2018-11-23T14:18:00.035Z,111.80
2018-11-23T14:20:29.441Z,111.90
2018-11-23T14:22:58.681Z,105.93
2018-11-23T14:25:29.123Z,113.70
2018-11-23T14:27:58.494Z,97.87
2018-11-23T14:30:28.992Z,102.83
2018-11-23T14:32:58.172Z,104.53
2018-11-23T14:35:28.403Z,107.67
2018-11-23T14:37:58.115Z,88.03
2018-11-23T14:40:27.248Z,94.57
2018-11-23T14:42:56.715Z,103.10
2018-11-23T14:45:29.630Z,100.93
2018-11-23T14:47:59.938Z,98.63
2018-11-23T14:50:30.475Z,95.77
2018-11-23T14:53:00.165Z,101.37
2018-11-23T14:55:29.659Z,87.67
2018-11-23T14:57:59.231Z,88.70
2018-11-23T15:00:30.590Z,88.27
2018-11-23T15:03:00.882Z,95.57
2018-11-23T15:05:29.967Z,90.67
2018-11-23T15:07:58.963Z,92.87
2018-11-23T15:10:29.258Z,92.67
2018-11-23T15:12:59.816Z,99.25
2018-11-23T15:15:30.195Z,92.33
2018-11-23T15:17:59.888Z,91.20
2018-11-23T15:20:33.151Z,85.27
2018-11-23T15:23:10.283Z,84.03
2018-11-23T15:25:39.474Z,81.50
2018-11-23T15:28:09.989Z,87.17
2018-11-23T15:30:39.812Z,92.10
2018-11-23T15:33:10.144Z,90.30
2018-11-23T15:35:40.334Z,88.55
2018-11-23T15:38:12.390Z,74.17
2018-11-23T15:40:41.529Z,74.40
2018-11-23T15:43:12.163Z,82.30
2018-11-23T15:45:41.181Z,81.80
2018-11-23T15:48:10.756Z,79.40
2018-11-23T15:50:40.689Z,80.57
2018-11-23T15:53:11.049Z,91.32
2018-11-23T15:55:40.548Z,81.57
2018-11-23T15:58:12.330Z,88.40
2018-11-23T16:00:42.592Z,81.23
2018-11-23T16:03:12.712Z,81.17
2018-11-23T16:05:41.806Z,73.27
2018-11-23T16:08:12.375Z,74.67
2018-11-23T16:10:41.579Z,77.90
2018-11-23T16:13:11.685Z,69.33
2018-11-23T16:15:40.652Z,71.33
2018-11-23T16:18:10.147Z,73.90
2018-11-23T16:20:40.887Z,82.87
2018-11-23T16:23:12.111Z,72.10
2018-11-23T16:25:41.506Z,78.97
2018-11-23T16:28:11.159Z,68.53
2018-11-23T16:30:41.679Z,70.03
2018-11-23T16:33:13.011Z,74.43
2018-11-23T16:35:42.623Z,85.85
2018-11-23T16:38:14.032Z,84.50
2018-11-23T16:40:44.705Z,79.07
2018-11-23T16:43:14.316Z,78.73
2018-11-23T16:45:43.920Z,85.37
2018-11-23T16:48:13.850Z,97.40
2018-11-23T16:50:43.136Z,85.10
2018-11-23T16:53:12.280Z,80.40
2018-11-23T16:55:41.390Z,93.97
2018-11-23T16:58:11.763Z,80.87
2018-11-23T17:00:43.062Z,89.23
2018-11-23T17:03:13.730Z,84.40
2018-11-23T17:05:44.378Z,85.70
2018-11-23T17:08:13.424Z,95.77
2018-11-23T17:10:42.739Z,78.80
2018-11-23T17:13:11.934Z,83.43
2018-11-23T17:15:41.048Z,88.37
2018-11-23T17:18:10.445Z,85.27
2018-11-23T17:20:40.064Z,82.20
2018-11-23T17:23:10.118Z,80.23
2018-11-23T17:25:39.254Z,82.53
2018-11-23T17:28:09.660Z,95.30
2018-11-23T17:30:38.938Z,93.33
2018-11-23T17:33:07.909Z,83.13
2018-11-23T17:35:36.841Z,90.57
2018-11-23T17:38:06.067Z,76.70
2018-11-23T17:40:36.995Z,83.20
2018-11-23T17:43:06.314Z,84.07
2018-11-23T17:45:35.554Z,78.17
2018-11-23T17:48:04.739Z,83.80
2018-11-23T17:50:35.083Z,77.87
2018-11-23T17:53:04.218Z,83.07
2018-11-23T17:55:33.428Z,81.17
2018-11-23T17:58:02.499Z,106.17
2018-11-23T18:00:38.951Z,90.00
2018-11-23T18:03:02.787Z,82.73
2018-11-23T18:05:32.730Z,77.33
2018-11-23T18:08:02.513Z,75.20
2018-11-23T18:10:32.789Z,77.10
2018-11-23T18:13:02.250Z,70.90
2018-11-23T18:15:32.744Z,83.23
2018-11-23T18:18:02.791Z,86.05
2018-11-23T18:20:32.458Z,93.67
2018-11-23T18:23:02.283Z,87.43
2018-11-23T18:25:40.319Z,90.57
2018-11-23T18:28:09.255Z,78.50
2018-11-23T18:30:38.221Z,81.50
2018-11-23T18:33:08.341Z,80.53
2018-11-23T18:35:37.465Z,85.20
2018-11-23T18:38:06.485Z,84.57
2018-11-23T18:40:37.447Z,88.07
2018-11-23T18:43:05.000Z,85.27
2018-11-23T18:45:34.101Z,83.97
2018-11-23T18:48:03.451Z,81.90
2018-11-23T18:50:32.705Z,92.43
2018-11-23T18:53:01.908Z,88.70
2018-11-23T18:55:30.884Z,91.60
2018-11-23T18:58:00.024Z,83.53
2018-11-23T19:00:29.067Z,91.07
2018-11-23T19:02:58.127Z,92.37
2018-11-23T19:05:27.828Z,86.57
2018-11-23T19:07:57.053Z,101.33
2018-11-23T19:10:26.154Z,98.93
2018-11-23T19:12:55.144Z,93.43
2018-11-23T19:15:25.565Z,89.80
2018-11-23T19:17:53.759Z,90.77
2018-11-23T19:20:23.434Z,89.10
2018-11-23T19:22:53.811Z,92.57
2018-11-23T19:25:23.056Z,96.40
2018-11-23T19:27:52.398Z,92.07
2018-11-23T19:30:28.161Z,100.40
2018-11-23T19:32:52.563Z,95.30
2018-11-23T19:35:21.751Z,100.03
2018-11-23T19:37:50.855Z,104.70
2018-11-23T19:40:19.940Z,101.05
2018-11-23T19:42:49.370Z,100.03
2018-11-23T19:45:18.503Z,91.63
2018-11-23T19:47:47.718Z,96.93
2018-11-23T19:50:17.708Z,94.07
2018-11-23T19:52:46.858Z,89.90
2018-11-23T19:55:17.406Z,93.77
2018-11-23T19:57:46.478Z,95.93
2018-11-23T20:00:19.741Z,102.67
2018-11-23T20:02:48.972Z,98.33
2018-11-23T20:05:18.092Z,108.20
2018-11-23T20:07:48.091Z,97.37
2018-11-23T20:10:18.393Z,104.50
2018-11-23T20:12:48.493Z,103.90
2018-11-23T20:15:18.525Z,99.13
2018-11-23T20:17:47.868Z,110.40
2018-11-23T20:20:17.414Z,100.30
2018-11-23T20:22:47.254Z,105.70
2018-11-23T20:25:17.299Z,97.43
2018-11-23T20:27:47.000Z,99.13
2018-11-23T20:30:17.923Z,102.40
2018-11-23T20:32:47.002Z,99.57
2018-11-23T20:35:18.713Z,102.23
2018-11-23T20:37:47.978Z,104.77
2018-11-23T20:40:18.185Z,96.87
2018-11-23T20:42:47.414Z,95.80
2018-11-23T20:45:16.697Z,95.73
2018-11-23T20:47:45.903Z,104.17
2018-11-23T20:50:15.962Z,106.30
2018-11-23T20:52:45.002Z,101.50
2018-11-23T20:55:18.968Z,102.97
2018-11-23T20:57:48.117Z,106.57
2018-11-23T21:00:18.117Z,101.60
2018-11-23T21:02:48.127Z,98.33
2018-11-23T21:05:18.054Z,93.30
2018-11-23T21:07:47.397Z,114.63
2018-11-23T21:10:20.835Z,95.37
2018-11-23T21:12:49.884Z,102.40
2018-11-23T21:15:23.955Z,99.07
2018-11-23T21:17:53.182Z,102.27
2018-11-23T21:20:22.357Z,108.40
2018-11-23T21:22:51.376Z,112.10
2018-11-23T21:25:20.651Z,108.10
2018-11-23T21:27:49.965Z,107.77
2018-11-23T21:30:19.985Z,99.23
2018-11-23T21:32:49.218Z,102.10
2018-11-23T21:35:18.505Z,108.20
2018-11-23T21:37:47.692Z,105.23
2018-11-23T21:40:17.131Z,103.37
2018-11-23T21:42:46.368Z,116.23
2018-11-23T21:45:16.678Z,116.73
2018-11-23T21:47:45.713Z,111.20
2018-11-23T21:50:16.693Z,109.43
2018-11-23T21:52:45.856Z,124.17
2018-11-23T21:55:17.094Z,124.70
2018-11-23T21:57:46.302Z,114.50
2018-11-23T22:00:15.996Z,113.80
2018-11-23T22:02:44.974Z,115.87
2018-11-23T22:05:14.199Z,107.63
2018-11-23T22:07:43.264Z,122.33
2018-11-23T22:10:17.923Z,113.87
2018-11-23T22:12:47.228Z,114.77
2018-11-23T22:15:18.139Z,109.13
2018-11-23T22:17:47.766Z,111.73
2018-11-23T22:20:17.736Z,108.73
2018-11-23T22:22:47.078Z,116.83
2018-11-23T22:25:17.081Z,116.03
2018-11-23T22:27:46.392Z,108.63
2018-11-23T22:30:18.229Z,109.20
2018-11-23T22:32:47.318Z,106.53
2018-11-23T22:35:16.418Z,113.07
2018-11-23T22:37:45.420Z,117.53
2018-11-23T22:40:15.424Z,113.00
2018-11-23T22:42:46.476Z,115.87
2018-11-23T22:45:16.266Z,107.63
2018-11-23T22:47:45.500Z,113.07
2018-11-23T22:50:16.838Z,112.33
2018-11-23T22:52:46.059Z,114.50
2018-11-23T22:55:15.725Z,105.80
2018-11-23T22:57:44.934Z,118.83
2018-11-23T23:01:29.030Z,125.00
2018-11-23T23:03:58.084Z,132.33
2018-11-23T23:06:27.163Z,138.33
2018-11-23T23:08:56.172Z,130.07
2018-11-23T23:11:25.093Z,125.47
2018-11-23T23:13:54.160Z,130.83
2018-11-23T23:16:23.125Z,140.03
2018-11-23T23:18:52.267Z,141.40
2018-11-23T23:21:21.472Z,124.10
2018-11-23T23:23:50.689Z,146.90
2018-11-23T23:26:19.765Z,144.20
2018-11-23T23:28:49.043Z,136.53
2018-11-23T23:31:18.276Z,134.83
2018-11-23T23:33:48.385Z,132.77
2018-11-23T23:36:17.400Z,128.37
2018-11-23T23:38:46.566Z,137.85
2018-11-23T23:41:15.884Z,126.50
2018-11-23T23:43:44.934Z,119.63
2018-11-23T23:46:13.867Z,111.80
2018-11-23T23:48:42.977Z,119.47
2018-11-23T23:51:11.936Z,111.87
2018-11-23T23:53:41.165Z,105.33
2018-11-23T23:56:10.372Z,122.77
2018-11-23T23:58:39.436Z,113.17
